Time;durP1;ratioP1;P1;durP2;ratioP2;P2;SDS_P1;SDS_P2;PMS_P1;PMS_P2;Temp;Humidity;BMP_temperature;BMP_pressure;BME280_temperature;BME280_humidity;BME280_pressure;Samples;Min_cycle;Max_cycle;Signal;HPM_P1;HPM_P2
2023/10/26 00:00:50;;;;;;;21.40;17.50;;;10.40;99.90;;;;;;5151917;27;20471;-64
2023/10/26 00:03:17;;;;;;;24.60;17.67;;;10.40;99.90;;;;;;5149598;27;20464;-64
2023/10/26 00:05:48;;;;;;;19.27;15.63;;;10.40;99.90;;;;;;5148224;27;20455;-64
2023/10/26 00:08:15;;;;;;;18.13;14.90;;;10.30;99.90;;;;;;5149534;27;20565;-64
2023/10/26 00:10:43;;;;;;;21.93;16.43;;;10.30;99.90;;;;;;5148484;27;20550;-64
2023/10/26 00:13:10;;;;;;;17.90;15.20;;;10.30;99.90;;;;;;5149819;27;20501;-64
2023/10/26 00:15:37;;;;;;;18.30;15.13;;;10.30;99.90;;;;;;5149562;27;20450;-64
2023/10/26 00:18:04;;;;;;;18.87;15.50;;;10.30;99.90;;;;;;5149100;27;20542;-63
2023/10/26 00:20:32;;;;;;;18.30;15.60;;;10.30;99.90;;;;;;5148606;27;20533;-64
2023/10/26 00:23:01;;;;;;;18.63;16.20;;;10.30;99.90;;;;;;5149197;27;20879;-64
2023/10/26 00:25:29;;;;;;;18.40;15.90;;;10.30;99.90;;;;;;5150261;27;20459;-63
2023/10/26 00:27:56;;;;;;;18.37;15.73;;;10.30;99.90;;;;;;5149258;27;20455;-63
2023/10/26 00:30:23;;;;;;;19.50;16.20;;;10.20;99.90;;;;;;5149176;27;20514;-63
2023/10/26 00:32:50;;;;;;;17.00;15.10;;;10.20;99.90;;;;;;5150301;27;20455;-63
2023/10/26 00:35:18;;;;;;;21.47;17.50;;;10.10;99.90;;;;;;5149266;27;20450;-63
2023/10/26 00:37:45;;;;;;;21.40;18.13;;;10.10;99.90;;;;;;5148358;27;20462;-63
2023/10/26 00:40:14;;;;;;;21.07;18.73;;;10.10;99.90;;;;;;5148075;27;20755;-63
2023/10/26 00:42:41;;;;;;;20.40;18.20;;;10.10;99.90;;;;;;5145988;27;20459;-63
2023/10/26 00:45:09;;;;;;;22.17;19.50;;;10.10;99.90;;;;;;5149024;27;20822;-63
2023/10/26 00:47:37;;;;;;;24.83;22.20;;;10.00;99.90;;;;;;5148477;27;20455;-63
2023/10/26 00:50:05;;;;;;;21.77;18.20;;;10.10;99.90;;;;;;5145824;27;20446;-63
2023/10/26 00:52:34;;;;;;;19.27;17.27;;;10.00;99.90;;;;;;5146686;27;20585;-63
2023/10/26 00:55:05;;;;;;;17.63;14.40;;;10.00;99.90;;;;;;5145319;27;20505;-63
2023/10/26 00:57:34;;;;;;;15.13;13.63;;;10.00;99.90;;;;;;5147029;27;20486;-63
2023/10/26 01:00:02;;;;;;;16.00;14.30;;;9.90;99.90;;;;;;5146729;27;20465;-63
2023/10/26 01:02:30;;;;;;;17.60;14.40;;;9.90;99.90;;;;;;5146731;27;20515;-63
2023/10/26 01:04:57;;;;;;;19.70;16.87;;;9.90;99.90;;;;;;5144249;27;20905;-63
2023/10/26 01:07:24;;;;;;;18.10;16.00;;;9.90;99.90;;;;;;5143747;27;20505;-63
2023/10/26 01:09:51;;;;;;;23.80;19.67;;;9.90;99.90;;;;;;5144635;27;20518;-62
2023/10/26 01:12:19;;;;;;;21.50;19.17;;;9.90;99.90;;;;;;5143130;27;20518;-62
2023/10/26 01:14:47;;;;;;;21.23;18.57;;;9.80;99.90;;;;;;5142880;27;20454;-62
2023/10/26 01:17:15;;;;;;;21.00;17.90;;;9.80;99.90;;;;;;5144132;27;20497;-62
2023/10/26 01:20:18;;;;;;;21.67;19.27;;;9.80;99.90;;;;;;5143310;27;20511;-62
2023/10/26 01:22:47;;;;;;;22.47;18.67;;;9.80;99.90;;;;;;5143910;27;20483;-62
2023/10/26 01:25:14;;;;;;;18.60;16.27;;;9.70;99.90;;;;;;5144192;27;20454;-62
2023/10/26 01:27:41;;;;;;;19.43;17.43;;;9.80;99.90;;;;;;5142426;27;20469;-62
2023/10/26 01:30:10;;;;;;;18.90;16.90;;;9.70;99.90;;;;;;5144335;27;20459;-62
2023/10/26 01:32:37;;;;;;;18.17;16.23;;;9.70;99.90;;;;;;5142886;27;20461;-62
2023/10/26 01:35:05;;;;;;;19.33;15.87;;;9.70;99.90;;;;;;5142410;27;20458;-62
2023/10/26 01:37:32;;;;;;;20.00;16.40;;;9.70;99.90;;;;;;5142650;27;20461;-62
2023/10/26 01:40:01;;;;;;;18.97;17.00;;;9.70;99.90;;;;;;5143278;27;20465;-62
2023/10/26 01:42:28;;;;;;;21.70;18.23;;;9.70;99.90;;;;;;5140833;27;20463;-62
2023/10/26 01:44:55;;;;;;;19.00;16.47;;;9.70;99.90;;;;;;5142021;27;20461;-62
2023/10/26 01:47:22;;;;;;;18.70;15.63;;;9.70;99.90;;;;;;5141194;27;20450;-62
2023/10/26 01:49:49;;;;;;;19.20;16.60;;;9.70;99.90;;;;;;5141242;27;20895;-62
2023/10/26 01:52:16;;;;;;;19.43;16.80;;;9.70;99.90;;;;;;5140866;27;20490;-62
2023/10/26 01:54:43;;;;;;;20.57;17.33;;;9.70;99.90;;;;;;5141139;27;20465;-62
2023/10/26 01:57:12;;;;;;;20.47;17.83;;;9.70;99.90;;;;;;5141250;27;20455;-62
2023/10/26 01:59:40;;;;;;;19.70;17.60;;;9.70;99.90;;;;;;5141704;27;20459;-62
2023/10/26 02:02:07;;;;;;;19.60;17.60;;;9.70;99.90;;;;;;5140677;27;20754;-62
2023/10/26 02:04:34;;;;;;;19.23;16.20;;;9.70;99.90;;;;;;5140967;27;20471;-62
2023/10/26 02:07:01;;;;;;;17.87;15.97;;;9.70;99.90;;;;;;5140837;27;20454;-62
2023/10/26 02:09:28;;;;;;;18.93;16.90;;;9.70;99.90;;;;;;5140496;28;20455;-62
2023/10/26 02:11:55;;;;;;;19.13;17.13;;;9.70;99.90;;;;;;5140782;27;20538;-62
2023/10/26 02:14:24;;;;;;;19.53;17.20;;;9.70;99.90;;;;;;5142118;28;20552;-62
2023/10/26 02:16:51;;;;;;;19.70;17.27;;;9.60;99.90;;;;;;5141705;28;20459;-62
2023/10/26 02:19:18;;;;;;;18.70;16.70;;;9.60;99.90;;;;;;5142782;28;20558;-63
2023/10/26 02:21:45;;;;;;;21.63;17.63;;;9.60;99.90;;;;;;5142137;27;20432;-62
2023/10/26 02:24:12;;;;;;;19.83;17.70;;;9.60;99.90;;;;;;5141241;28;20458;-63
2023/10/26 02:26:38;;;;;;;17.87;15.93;;;9.60;99.90;;;;;;5140218;27;20455;-65
2023/10/26 02:29:05;;;;;;;18.27;16.47;;;9.60;99.90;;;;;;5139012;27;20752;-66
2023/10/26 02:31:34;;;;;;;18.70;16.80;;;9.60;99.90;;;;;;5138402;28;20483;-67
2023/10/26 02:34:01;;;;;;;19.50;17.47;;;9.60;99.90;;;;;;5138344;28;20561;-68
2023/10/26 02:36:29;;;;;;;17.33;15.37;;;9.60;99.90;;;;;;5138370;28;20890;-68
2023/10/26 02:38:56;;;;;;;18.70;15.53;;;9.60;99.90;;;;;;5138083;28;20524;-68
2023/10/26 02:41:23;;;;;;;18.00;15.50;;;9.60;99.90;;;;;;5138394;27;20425;-67
2023/10/26 02:43:50;;;;;;;18.00;15.60;;;9.60;99.90;;;;;;5137699;28;20850;-66
2023/10/26 02:46:17;;;;;;;17.60;15.53;;;9.50;99.90;;;;;;5138506;27;20461;-65
2023/10/26 02:48:45;;;;;;;17.53;15.73;;;9.60;99.90;;;;;;5075004;27;20550;-65
2023/10/26 02:51:12;;;;;;;17.67;15.80;;;9.60;99.90;;;;;;5037845;28;20927;-64
2023/10/26 02:53:39;;;;;;;21.53;16.47;;;9.60;99.90;;;;;;5038447;28;20463;-64
2023/10/26 02:56:07;;;;;;;21.17;17.13;;;9.50;99.90;;;;;;5038449;28;20455;-64
2023/10/26 02:58:34;;;;;;;21.83;18.57;;;9.60;99.90;;;;;;5036894;28;20463;-64
2023/10/26 03:01:01;;;;;;;20.70;18.50;;;9.60;99.90;;;;;;5037160;28;20463;-65
2023/10/26 03:03:28;;;;;;;23.13;20.63;;;9.50;99.90;;;;;;5033832;28;20740;-66
2023/10/26 03:05:59;;;;;;;23.90;20.00;;;9.50;99.90;;;;;;5034784;28;20462;-65
2023/10/26 03:08:27;;;;;;;20.57;18.37;;;9.50;99.90;;;;;;5038504;28;20486;-65
2023/10/26 03:10:54;;;;;;;24.03;20.20;;;9.50;99.90;;;;;;5040201;28;20459;-65
2023/10/26 03:13:21;;;;;;;25.63;21.10;;;9.50;99.90;;;;;;5040573;28;20466;-64
2023/10/26 03:15:48;;;;;;;24.20;21.27;;;9.50;99.90;;;;;;5039048;28;20752;-64
2023/10/26 03:18:15;;;;;;;24.60;20.17;;;9.50;99.90;;;;;;5038303;28;20461;-64
2023/10/26 03:20:42;;;;;;;23.10;20.60;;;9.60;99.90;;;;;;5039342;28;20512;-63
2023/10/26 03:23:13;;;;;;;24.23;20.83;;;9.60;99.90;;;;;;5040331;28;20771;-63
2023/10/26 03:25:40;;;;;;;24.00;21.47;;;9.60;99.90;;;;;;5039409;28;20462;-63
2023/10/26 03:28:07;;;;;;;25.47;22.23;;;9.60;99.90;;;;;;5040470;28;20463;-63
2023/10/26 03:30:35;;;;;;;25.50;22.70;;;9.60;99.90;;;;;;5042195;28;20470;-63
2023/10/26 03:33:02;;;;;;;25.17;22.47;;;9.60;99.90;;;;;;5042354;28;20492;-63
2023/10/26 03:35:29;;;;;;;27.70;22.67;;;9.60;99.90;;;;;;5042682;28;20467;-63
2023/10/26 03:37:56;;;;;;;26.30;23.40;;;9.60;99.90;;;;;;5042576;28;20463;-63
2023/10/26 03:40:24;;;;;;;26.43;23.40;;;9.60;99.90;;;;;;5043346;28;20471;-63
2023/10/26 03:42:52;;;;;;;27.57;24.37;;;9.60;99.90;;;;;;5041718;28;20455;-63
2023/10/26 03:45:19;;;;;;;27.00;23.70;;;9.60;99.90;;;;;;5042566;28;20463;-63
2023/10/26 03:47:46;;;;;;;27.37;24.20;;;9.60;99.90;;;;;;5040683;28;20743;-63
2023/10/26 03:50:13;;;;;;;26.57;23.37;;;9.60;99.90;;;;;;5040787;28;20557;-63
2023/10/26 03:52:40;;;;;;;26.43;23.50;;;9.60;99.90;;;;;;5041660;28;20491;-63
2023/10/26 03:55:08;;;;;;;29.43;25.33;;;9.60;99.90;;;;;;5041017;28;20460;-63
2023/10/26 03:57:36;;;;;;;27.40;24.50;;;9.60;99.90;;;;;;5039983;28;20460;-63
2023/10/26 04:00:04;;;;;;;28.40;25.10;;;9.50;99.90;;;;;;5038715;28;20470;-63
2023/10/26 04:02:31;;;;;;;29.40;24.57;;;9.50;99.90;;;;;;5039060;28;20451;-63
2023/10/26 04:04:58;;;;;;;26.70;23.80;;;9.50;99.90;;;;;;5039812;28;20464;-63
2023/10/26 04:07:27;;;;;;;28.80;24.47;;;9.50;99.90;;;;;;5038713;28;20955;-63
2023/10/26 04:09:54;;;;;;;26.00;23.20;;;9.50;99.90;;;;;;5038609;28;20546;-63
2023/10/26 04:12:21;;;;;;;27.53;24.47;;;9.50;99.90;;;;;;5038452;28;20498;-63
2023/10/26 04:14:50;;;;;;;27.37;23.80;;;9.50;99.90;;;;;;5037894;28;20562;-63
2023/10/26 04:17:17;;;;;;;28.57;24.67;;;9.50;99.90;;;;;;5038881;28;20879;-63
2023/10/26 04:19:44;;;;;;;29.60;25.50;;;9.50;99.90;;;;;;5039593;28;20463;-63
2023/10/26 04:22:11;;;;;;;32.40;25.80;;;9.50;99.90;;;;;;5039366;28;20479;-63
2023/10/26 04:24:38;;;;;;;27.47;24.43;;;9.60;99.90;;;;;;5039321;28;20498;-63
2023/10/26 04:27:05;;;;;;;28.97;24.93;;;9.50;99.90;;;;;;5039309;28;20430;-62
2023/10/26 04:29:33;;;;;;;27.17;23.57;;;9.50;99.90;;;;;;5038430;28;20468;-63
2023/10/26 04:32:01;;;;;;;26.47;23.60;;;9.60;99.90;;;;;;5039006;28;20491;-63
2023/10/26 04:34:28;;;;;;;26.47;23.67;;;9.60;99.90;;;;;;5038529;28;20486;-62
2023/10/26 04:36:55;;;;;;;26.73;23.60;;;9.50;99.90;;;;;;5039061;28;21166;-63
2023/10/26 04:39:23;;;;;;;25.40;22.70;;;9.50;99.90;;;;;;5039419;28;20466;-62
2023/10/26 04:41:50;;;;;;;27.83;22.93;;;9.50;99.90;;;;;;5039630;28;20746;-63
2023/10/26 04:44:18;;;;;;;27.07;22.60;;;9.50;99.90;;;;;;5039458;28;20463;-63
2023/10/26 04:46:45;;;;;;;22.90;20.07;;;9.50;99.90;;;;;;5038378;28;20459;-62
2023/10/26 04:49:14;;;;;;;24.20;21.60;;;9.50;99.90;;;;;;5038059;28;20466;-62
2023/10/26 04:51:41;;;;;;;25.17;21.77;;;9.50;99.90;;;;;;5037820;28;20459;-62
2023/10/26 04:54:08;;;;;;;27.07;22.77;;;9.50;99.90;;;;;;5037489;28;20950;-62
2023/10/26 04:56:35;;;;;;;24.63;21.93;;;9.50;99.90;;;;;;5037871;28;20892;-62
2023/10/26 04:59:02;;;;;;;25.10;22.23;;;9.50;99.90;;;;;;5037464;28;20565;-62
2023/10/26 05:01:29;;;;;;;26.30;21.60;;;9.50;99.90;;;;;;5037470;28;20876;-62
2023/10/26 05:03:56;;;;;;;26.17;23.37;;;9.40;99.90;;;;;;5037086;28;20456;-62
2023/10/26 05:06:25;;;;;;;29.27;25.27;;;9.40;99.90;;;;;;5037114;28;20459;-62
2023/10/26 05:08:52;;;;;;;30.50;25.07;;;9.40;99.90;;;;;;5036853;28;20747;-62
2023/10/26 05:11:21;;;;;;;29.87;25.83;;;9.50;99.90;;;;;;5036610;28;20459;-62
2023/10/26 05:13:52;;;;;;;32.70;28.10;;;9.40;99.90;;;;;;5035821;28;20491;-62
2023/10/26 05:16:21;;;;;;;36.33;29.10;;;9.40;99.90;;;;;;5036190;28;20512;-62
2023/10/26 05:18:48;;;;;;;35.30;29.30;;;9.40;99.90;;;;;;5036159;28;20455;-62
2023/10/26 05:21:15;;;;;;;37.47;27.60;;;9.40;99.90;;;;;;5036065;28;20459;-62
2023/10/26 05:23:46;;;;;;;37.97;30.30;;;9.40;99.90;;;;;;5036447;28;20460;-62
2023/10/26 05:26:13;;;;;;;35.00;29.30;;;9.50;99.90;;;;;;5037340;28;20739;-62
2023/10/26 05:28:40;;;;;;;41.70;31.47;;;9.40;99.90;;;;;;5024560;28;20483;-62
2023/10/26 05:31:08;;;;;;;39.50;30.90;;;9.30;99.90;;;;;;5016251;28;20479;-62
2023/10/26 05:33:35;;;;;;;36.33;29.70;;;9.40;99.90;;;;;;5017651;28;20498;-63
2023/10/26 05:36:02;;;;;;;39.63;31.20;;;9.40;99.90;;;;;;5017876;28;20927;-63
2023/10/26 05:38:29;;;;;;;36.33;29.73;;;9.40;99.90;;;;;;5016974;28;20897;-63
2023/10/26 05:40:58;;;;;;;36.87;29.83;;;9.30;99.90;;;;;;5016343;28;20460;-63
2023/10/26 05:43:25;;;;;;;36.70;30.17;;;9.30;99.90;;;;;;5017234;28;20726;-63
2023/10/26 05:45:54;;;;;;;38.80;30.73;;;9.40;99.90;;;;;;5017660;28;20464;-63
2023/10/26 05:48:23;;;;;;;35.77;27.73;;;9.40;99.90;;;;;;5018201;28;20482;-63
2023/10/26 05:50:50;;;;;;;39.43;30.77;;;9.40;99.90;;;;;;5019346;28;20446;-63
2023/10/26 05:53:17;;;;;;;36.20;27.83;;;9.30;99.90;;;;;;5019613;28;20508;-63
2023/10/26 05:55:44;;;;;;;37.80;29.63;;;9.30;99.90;;;;;;5018697;28;20506;-63
2023/10/26 05:58:13;;;;;;;39.60;29.10;;;9.40;99.90;;;;;;5018372;28;20495;-63
2023/10/26 06:00:40;;;;;;;35.57;28.97;;;9.40;99.90;;;;;;5017115;28;20794;-63
2023/10/26 06:03:07;;;;;;;40.47;31.63;;;9.40;99.90;;;;;;5016724;28;20550;-63
2023/10/26 06:05:34;;;;;;;36.93;29.43;;;9.40;99.90;;;;;;5017451;28;20715;-63
2023/10/26 06:08:02;;;;;;;37.33;29.20;;;9.30;99.90;;;;;;5016032;28;20519;-63
2023/10/26 06:10:29;;;;;;;38.27;30.67;;;9.30;99.90;;;;;;5015775;28;20551;-63
2023/10/26 06:12:56;;;;;;;39.60;30.07;;;9.40;99.90;;;;;;5015085;28;20532;-63
2023/10/26 06:15:25;;;;;;;40.50;30.40;;;9.40;99.90;;;;;;5015507;28;20578;-63
2023/10/26 06:17:52;;;;;;;46.10;31.90;;;9.40;99.90;;;;;;5015946;28;20471;-63
2023/10/26 06:20:21;;;;;;;35.27;29.13;;;9.30;99.90;;;;;;5015945;28;20460;-63
2023/10/26 06:22:49;;;;;;;35.90;28.80;;;9.40;99.90;;;;;;5016625;28;20460;-63
2023/10/26 06:25:16;;;;;;;35.40;29.83;;;9.40;99.90;;;;;;5017064;28;20767;-62
2023/10/26 06:27:43;;;;;;;39.97;30.90;;;9.40;99.90;;;;;;5017327;28;20482;-63
2023/10/26 06:30:11;;;;;;;36.20;29.23;;;9.50;99.90;;;;;;5016849;28;20464;-63
2023/10/26 06:32:40;;;;;;;39.43;30.27;;;9.50;99.90;;;;;;5016583;28;20793;-62
2023/10/26 06:35:07;;;;;;;42.10;30.40;;;9.40;99.90;;;;;;5016546;28;20467;-63
2023/10/26 06:37:34;;;;;;;37.50;30.47;;;9.50;99.90;;;;;;5017101;28;20456;-62
2023/10/26 06:40:02;;;;;;;40.57;31.77;;;9.50;99.90;;;;;;5017738;28;20771;-62
2023/10/26 06:42:29;;;;;;;41.73;31.23;;;9.50;99.90;;;;;;5020195;28;20756;-63
2023/10/26 06:44:56;;;;;;;41.70;32.17;;;9.50;99.90;;;;;;5020336;28;20528;-63
2023/10/26 06:47:24;;;;;;;39.73;29.00;;;9.50;99.90;;;;;;5020672;28;20743;-63
2023/10/26 06:49:52;;;;;;;42.27;32.30;;;9.50;99.90;;;;;;5020295;28;20500;-62
2023/10/26 06:52:19;;;;;;;41.60;30.47;;;9.50;99.90;;;;;;5020362;28;20460;-62
2023/10/26 06:54:49;;;;;;;42.00;31.53;;;9.50;99.90;;;;;;5020949;28;20459;-63
2023/10/26 06:57:16;;;;;;;39.63;31.50;;;9.50;99.90;;;;;;5019957;28;20467;-62
2023/10/26 06:59:43;;;;;;;39.63;29.83;;;9.50;99.90;;;;;;5019458;28;20500;-63
2023/10/26 07:02:12;;;;;;;38.77;30.13;;;9.50;99.90;;;;;;5018775;28;20860;-66
2023/10/26 07:04:39;;;;;;;43.67;30.70;;;9.50;99.90;;;;;;5017415;28;20472;-66
2023/10/26 07:07:08;;;;;;;40.47;28.97;;;9.40;99.90;;;;;;5016139;28;20865;-65
2023/10/26 07:09:37;;;;;;;39.03;29.23;;;9.50;99.90;;;;;;5016342;28;20776;-65
2023/10/26 07:12:05;;;;;;;37.50;29.17;;;9.60;99.90;;;;;;5016010;28;20464;-65
2023/10/26 07:14:32;;;;;;;35.10;28.70;;;9.50;99.90;;;;;;5015047;28;20873;-65
2023/10/26 07:17:00;;;;;;;40.50;30.70;;;9.60;99.90;;;;;;5016157;28;20781;-65
2023/10/26 07:19:27;;;;;;;40.97;30.70;;;9.60;99.90;;;;;;5017537;28;20460;-66
2023/10/26 07:21:54;;;;;;;39.80;31.50;;;9.70;99.90;;;;;;5017482;28;20555;-65
2023/10/26 07:24:23;;;;;;;36.70;28.70;;;9.70;99.90;;;;;;5017186;28;20456;-66
2023/10/26 07:26:51;;;;;;;40.97;30.27;;;9.70;99.90;;;;;;5017249;28;20507;-66
2023/10/26 07:29:18;;;;;;;40.87;31.00;;;9.80;99.90;;;;;;5017439;28;20464;-65
2023/10/26 07:31:46;;;;;;;38.63;29.10;;;9.80;99.90;;;;;;5016882;28;20460;-65
2023/10/26 07:34:13;;;;;;;40.50;29.87;;;9.90;99.90;;;;;;5017071;28;20496;-65
2023/10/26 07:36:41;;;;;;;35.43;27.30;;;9.90;99.90;;;;;;5017376;28;20544;-66
2023/10/26 07:39:08;;;;;;;36.40;29.23;;;9.90;99.90;;;;;;5017820;28;20548;-66
2023/10/26 07:41:37;;;;;;;39.33;28.57;;;9.90;99.90;;;;;;5017458;28;20455;-66
2023/10/26 07:44:04;;;;;;;36.63;28.47;;;9.90;99.90;;;;;;5016626;28;20463;-65
2023/10/26 07:46:32;;;;;;;33.00;26.67;;;9.90;99.90;;;;;;5016777;28;20464;-65
2023/10/26 07:48:59;;;;;;;36.73;25.93;;;9.90;99.90;;;;;;5017093;28;20464;-66
2023/10/26 07:51:27;;;;;;;32.50;25.20;;;10.00;99.90;;;;;;5017093;28;20464;-65
2023/10/26 07:53:54;;;;;;;32.17;25.57;;;9.90;99.90;;;;;;5016555;28;20496;-65
2023/10/26 07:56:21;;;;;;;31.00;24.73;;;9.90;99.90;;;;;;5016549;28;20563;-65
2023/10/26 07:58:51;;;;;;;31.87;24.70;;;10.00;99.90;;;;;;5017067;28;20551;-65
2023/10/26 08:01:18;;;;;;;34.33;25.90;;;10.10;99.90;;;;;;5016655;28;20843;-65
2023/10/26 08:03:45;;;;;;;31.87;24.67;;;10.10;99.90;;;;;;5016326;28;20456;-65
2023/10/26 08:06:13;;;;;;;28.87;23.83;;;10.20;99.90;;;;;;5016815;28;20904;-65
2023/10/26 08:08:40;;;;;;;29.60;23.20;;;10.20;99.90;;;;;;5015900;28;20484;-65
2023/10/26 08:11:09;;;;;;;26.20;22.90;;;10.40;99.90;;;;;;5016692;28;20749;-65
2023/10/26 08:13:37;;;;;;;27.70;21.93;;;10.30;99.90;;;;;;5016453;28;21181;-64
2023/10/26 08:16:06;;;;;;;30.17;23.50;;;10.40;99.90;;;;;;5015785;28;20467;-65
2023/10/26 08:18:34;;;;;;;26.90;24.00;;;10.50;99.90;;;;;;5016182;28;20474;-65
2023/10/26 08:21:03;;;;;;;25.93;22.30;;;10.60;99.90;;;;;;5016236;28;20459;-64
2023/10/26 08:23:32;;;;;;;28.20;24.07;;;10.60;99.90;;;;;;5016348;28;20464;-65
2023/10/26 08:26:07;;;;;;;30.53;24.57;;;10.60;99.90;;;;;;5016070;28;20504;-64
2023/10/26 08:28:34;;;;;;;26.70;22.63;;;10.60;99.90;;;;;;5016040;28;20892;-65
2023/10/26 08:31:02;;;;;;;28.53;23.20;;;10.60;99.90;;;;;;5016107;28;20885;-64
2023/10/26 08:33:31;;;;;;;27.10;23.47;;;10.70;99.90;;;;;;5016251;28;20471;-64
2023/10/26 08:35:58;;;;;;;31.30;23.37;;;10.70;99.90;;;;;;5015765;28;20915;-64
2023/10/26 08:38:26;;;;;;;27.97;22.67;;;10.70;99.90;;;;;;5015597;28;20494;-64
2023/10/26 08:40:55;;;;;;;29.70;23.07;;;10.90;99.90;;;;;;5015856;28;20491;-63
2023/10/26 08:43:24;;;;;;;25.20;21.37;;;10.80;99.90;;;;;;5016111;28;20464;-64
2023/10/26 08:45:53;;;;;;;25.07;21.00;;;10.90;99.90;;;;;;5015468;28;20464;-64
2023/10/26 08:48:21;;;;;;;27.13;21.90;;;10.90;99.90;;;;;;5014829;28;20499;-64
2023/10/26 08:50:50;;;;;;;22.67;19.73;;;10.70;99.90;;;;;;5013718;28;20464;-64
2023/10/26 08:53:18;;;;;;;24.20;20.80;;;10.70;99.90;;;;;;5014155;28;20590;-63
2023/10/26 08:55:47;;;;;;;24.73;20.77;;;10.70;99.90;;;;;;5013633;28;20556;-64
2023/10/26 08:58:14;;;;;;;26.10;20.30;;;10.70;99.90;;;;;;5013849;28;20468;-63
2023/10/26 09:00:41;;;;;;;27.20;20.10;;;10.80;99.90;;;;;;5014184;28;20812;-63
2023/10/26 09:03:09;;;;;;;24.00;19.23;;;10.90;99.90;;;;;;5013092;28;20453;-63
2023/10/26 09:05:53;;;;;;;22.83;19.37;;;10.60;99.90;;;;;;5014017;28;20963;-63
2023/10/26 09:08:22;;;;;;;29.13;20.17;;;10.70;99.90;;;;;;5013880;28;20515;-63
2023/10/26 09:10:50;;;;;;;23.33;20.40;;;10.60;99.90;;;;;;5013295;28;20464;-63
2023/10/26 09:13:26;;;;;;;23.03;19.80;;;10.60;99.90;;;;;;5013705;28;20550;-64
2023/10/26 09:15:57;;;;;;;27.87;21.03;;;10.70;99.90;;;;;;5013582;28;20466;-63
2023/10/26 09:18:25;;;;;;;24.33;20.73;;;10.80;99.90;;;;;;5015662;28;20590;-64
2023/10/26 09:21:05;;;;;;;21.03;18.60;;;10.70;99.90;;;;;;5025149;28;20479;-64
2023/10/26 09:23:34;;;;;;;20.90;18.07;;;10.70;99.90;;;;;;5066778;27;20459;-64
2023/10/26 09:26:03;;;;;;;18.97;15.40;;;10.70;99.90;;;;;;5034477;28;20463;-64
2023/10/26 09:28:30;;;;;;;18.60;14.83;;;10.60;99.90;;;;;;5028591;28;20792;-64
2023/10/26 09:30:59;;;;;;;16.83;15.00;;;10.60;99.90;;;;;;5026734;28;20931;-64
2023/10/26 09:33:28;;;;;;;17.07;14.63;;;10.60;99.90;;;;;;5034776;28;20487;-64
2023/10/26 09:35:55;;;;;;;16.10;14.40;;;10.60;99.90;;;;;;5033787;28;20463;-64
2023/10/26 09:38:36;;;;;;;15.73;14.03;;;10.70;99.90;;;;;;5034707;28;20481;-64
2023/10/26 09:41:08;;;;;;;15.83;13.80;;;10.60;99.90;;;;;;5034461;28;20455;-64
2023/10/26 09:43:36;;;;;;;17.17;15.37;;;10.60;99.90;;;;;;5033863;28;20536;-64
2023/10/26 09:46:04;;;;;;;20.53;15.03;;;10.70;99.90;;;;;;5033834;28;20765;-64
2023/10/26 09:48:31;;;;;;;13.47;12.10;;;10.70;99.90;;;;;;5033901;28;20753;-64
2023/10/26 09:51:01;;;;;;;15.77;13.90;;;10.70;99.90;;;;;;5034603;28;20458;-64
2023/10/26 09:53:33;;;;;;;16.20;14.47;;;10.60;99.90;;;;;;5034430;28;20495;-64
2023/10/26 09:56:04;;;;;;;14.33;12.93;;;10.70;99.90;;;;;;5034117;28;20775;-64
2023/10/26 09:58:35;;;;;;;14.37;12.90;;;10.80;99.90;;;;;;5033316;28;20499;-64
2023/10/26 10:01:24;;;;;;;15.17;13.67;;;11.00;99.90;;;;;;5034323;28;20772;-64
2023/10/26 10:03:51;;;;;;;14.03;12.53;;;11.00;99.90;;;;;;5033934;28;20498;-64
2023/10/26 10:06:47;;;;;;;13.73;12.33;;;11.10;99.90;;;;;;5033365;28;20490;-64
2023/10/26 10:09:16;;;;;;;13.37;12.17;;;11.20;99.90;;;;;;5034308;28;20470;-64
2023/10/26 10:11:45;;;;;;;13.30;11.90;;;11.20;99.90;;;;;;5033700;28;20759;-63
2023/10/26 10:14:55;;;;;;;11.37;10.23;;;11.20;99.90;;;;;;5033569;28;20492;-63
2023/10/26 10:17:23;;;;;;;10.77;9.67;;;11.30;99.90;;;;;;5017276;28;20562;-64
2023/10/26 10:20:30;;;;;;;9.60;8.70;;;11.20;99.90;;;;;;5040454;28;20459;-64
2023/10/26 10:22:59;;;;;;;13.37;10.20;;;11.10;99.90;;;;;;5040860;28;20630;-64
2023/10/26 10:25:58;;;;;;;11.60;9.30;;;11.00;99.90;;;;;;5041200;28;20451;-64
2023/10/26 10:28:54;;;;;;;12.57;10.50;;;11.20;99.90;;;;;;5040333;28;20553;-64
2023/10/26 10:31:40;;;;;;;11.50;10.40;;;11.20;99.90;;;;;;5040518;28;20942;-64
2023/10/26 10:34:10;;;;;;;10.60;9.50;;;11.30;99.90;;;;;;5040729;28;20942;-64
2023/10/26 10:37:21;;;;;;;10.40;9.30;;;11.50;99.90;;;;;;5040472;28;20541;-64
2023/10/26 10:40:10;;;;;;;9.60;8.70;;;11.70;99.90;;;;;;5038828;28;20478;-64
2023/10/26 10:42:39;;;;;;;9.50;8.60;;;12.10;99.90;;;;;;5038096;28;20482;-64
2023/10/26 10:45:12;;;;;;;9.90;7.90;;;12.10;99.90;;;;;;5040046;28;20847;-64
2023/10/26 10:47:40;;;;;;;7.70;6.80;;;12.30;99.90;;;;;;5040234;28;20734;-64
2023/10/26 10:50:18;;;;;;;8.13;7.33;;;12.30;99.90;;;;;;5040127;28;20466;-64
2023/10/26 10:52:45;;;;;;;7.50;6.80;;;12.40;99.90;;;;;;5040470;28;20516;-64
2023/10/26 10:55:12;;;;;;;7.73;6.57;;;12.40;99.90;;;;;;5040289;28;20927;-64
2023/10/26 10:57:56;;;;;;;6.73;6.00;;;12.50;99.90;;;;;;5039843;28;20465;-63
2023/10/26 11:00:26;;;;;;;7.67;6.03;;;12.50;99.90;;;;;;5040123;28;20509;-63
2023/10/26 11:02:56;;;;;;;7.50;6.50;;;12.40;1.00;;;;;;5040432;28;20486;-63
2023/10/26 11:05:36;;;;;;;8.30;6.87;;;12.40;99.90;;;;;;5040092;28;20922;-63
2023/10/26 11:08:03;;;;;;;7.23;6.63;;;12.40;99.90;;;;;;5039597;28;20488;-63
2023/10/26 11:10:31;;;;;;;6.67;5.97;;;12.40;99.90;;;;;;5040155;28;20440;-63
2023/10/26 11:13:00;;;;;;;7.00;6.30;;;12.20;99.90;;;;;;5039528;28;20494;-62
2023/10/26 11:15:37;;;;;;;6.70;6.10;;;12.30;99.90;;;;;;5040223;28;20534;-63
2023/10/26 11:18:07;;;;;;;7.10;6.40;;;12.30;99.90;;;;;;5039807;28;20458;-63
2023/10/26 11:20:38;;;;;;;7.10;6.40;;;12.00;99.90;;;;;;5039912;28;20879;-63
2023/10/26 11:23:06;;;;;;;6.00;5.40;;;12.10;99.90;;;;;;5040033;28;20498;-63
2023/10/26 11:25:33;;;;;;;5.77;5.17;;;12.20;99.90;;;;;;5039912;28;20451;-63
2023/10/26 11:28:01;;;;;;;5.63;5.03;;;12.30;99.90;;;;;;5035421;28;20954;-63
2023/10/26 11:30:28;;;;;;;5.47;4.97;;;12.50;99.90;;;;;;5036490;28;20485;-63
2023/10/26 11:32:57;;;;;;;5.73;4.20;;;13.10;99.90;;;;;;5036336;28;20732;-62
2023/10/26 11:35:26;;;;;;;4.20;3.80;;;13.10;99.90;;;;;;5036255;28;20582;-63
2023/10/26 11:37:55;;;;;;;3.87;3.07;;;13.30;99.90;;;;;;5035784;28;20463;-63
2023/10/26 11:40:31;;;;;;;3.23;2.83;;;13.80;99.90;;;;;;5036179;28;20562;-63
2023/10/26 11:43:00;;;;;;;5.50;2.97;;;13.90;99.90;;;;;;5036485;28;20509;-62
2023/10/26 11:45:28;;;;;;;3.60;3.30;;;14.10;99.90;;;;;;5036647;28;20459;-63
2023/10/26 11:47:58;;;;;;;4.43;3.73;;;14.20;99.90;;;;;;5036149;28;20880;-63
2023/10/26 11:50:27;;;;;;;7.00;4.50;;;14.30;99.90;;;;;;5036283;28;20474;-63
2023/10/26 11:52:55;;;;;;;4.37;3.97;;;14.30;99.90;;;;;;5036315;28;20459;-63
2023/10/26 11:55:24;;;;;;;5.13;4.63;;;14.20;99.90;;;;;;5036329;28;20490;-63
2023/10/26 11:57:52;;;;;;;5.57;5.07;;;14.00;99.90;;;;;;5036110;28;20554;-63
2023/10/26 12:00:22;;;;;;;6.70;6.10;;;13.90;99.90;;;;;;5036129;28;20896;-63
2023/10/26 12:02:49;;;;;;;5.73;5.20;;;13.70;99.90;;;;;;5036211;28;20553;-63
2023/10/26 12:05:19;;;;;;;6.00;5.40;;;13.70;99.90;;;;;;5036119;28;20554;-63
2023/10/26 12:07:47;;;;;;;5.57;5.07;;;13.60;99.90;;;;;;5034451;28;20966;-63
2023/10/26 12:10:15;;;;;;;5.20;4.70;;;13.60;99.90;;;;;;5032631;28;20494;-63
2023/10/26 12:12:43;;;;;;;4.90;4.40;;;13.40;99.90;;;;;;5034945;28;20747;-63
2023/10/26 12:15:11;;;;;;;4.10;3.70;;;13.30;99.90;;;;;;5035095;28;20494;-63
2023/10/26 12:17:38;;;;;;;5.07;4.60;;;13.20;99.90;;;;;;5034532;28;20459;-63
2023/10/26 12:20:08;;;;;;;5.47;4.77;;;13.10;99.90;;;;;;5034635;28;20452;-63
2023/10/26 12:22:37;;;;;;;14.63;13.20;;;13.10;99.90;;;;;;5029551;28;20471;-63
2023/10/26 12:25:06;;;;;;;26.73;18.90;;;13.00;99.90;;;;;;5035124;28;20922;-63
2023/10/26 12:27:33;;;;;;;16.77;15.10;;;12.90;99.90;;;;;;5035335;28;20462;-63
2023/10/26 12:30:01;;;;;;;9.53;8.63;;;12.90;99.90;;;;;;5033128;28;20543;-63
2023/10/26 12:32:28;;;;;;;12.83;11.50;;;12.90;99.90;;;;;;5031752;28;20471;-63
2023/10/26 12:34:55;;;;;;;9.03;8.00;;;12.90;99.90;;;;;;5032133;28;20483;-62
2023/10/26 12:37:23;;;;;;;8.67;7.20;;;12.70;99.90;;;;;;5036036;28;20933;-63
2023/10/26 12:39:51;;;;;;;12.17;10.90;;;12.60;99.90;;;;;;5036102;28;20455;-63
2023/10/26 12:42:18;;;;;;;17.10;13.87;;;12.60;99.90;;;;;;5030833;28;20483;-64
2023/10/26 12:44:46;;;;;;;12.37;10.37;;;12.50;99.90;;;;;;5034336;28;20475;-63